KRNT - Renton, Washington, USA
Distance from station: W 21mi, 33km
Updated: Sat, 28-May-2022 5:53pm PDT
Light rain, Overcast
Light rain, Overcast
 Wind from NNW
Wind: NNW 14 mph , 22 km/h
Temperature: 54°F , 12°C
Dew Point: 46°F , 8°C
Humidity: 77%
Barometer: 29.70 inHg , 1005.8 hPa
Visibility: 7 miles , 11 km
Cloud details: 1400 ft
7000 ft
2022/05/29 00:53 KRNT 290053Z 33012KT 7SM -RA FEW014 OVC070 12/08 A2970 RMK AO2 RAB08 SLP062 T01170083 PNO $
KBFI - Seattle/Boeing, Washington, USA
Distance from station: W 25mi, 41km
Updated: Sat, 28-May-2022 5:53pm PDT
Light rain, Overcast
Light rain, Overcast
 Wind from NW
Wind: NW 7 mph , 11 km/h
Temperature: 54°F , 12°C
Dew Point: 48°F , 9°C
Humidity: 82%
Barometer: 29.71 inHg , 1006.1 hPa
Visibility: 10 miles , 16 km
Cloud details: 2400 ft
5000 ft
6000 ft
2022/05/29 00:53 KBFI 290053Z 31006KT 10SM -RA FEW024 FEW050 OVC060 12/09 A2971 RMK AO2 SLP059 P0000 T01170094
 
KSEA - Seattle/Metro, Washington, USA
Distance from station: W 25mi, 41km
Updated: Sat, 28-May-2022 5:53pm PDT
Light rain, Overcast
Light rain, Overcast
 Wind from N
Wind: N 13 mph , 20 km/h
Temperature: 52°F , 11°C
Dew Point: 46°F , 8°C
Humidity: 82%
Barometer: 29.70 inHg , 1005.8 hPa
Visibility: 8 miles , 13 km
Cloud details: 2000 ft
5500 ft
7000 ft
2022/05/29 00:53 KSEA 290053Z 35011KT 8SM -RA FEW020 BKN055 OVC070 11/08 A2970 RMK AO2 SLP064 P0002 T01060083
KSMP - Stampede Pass, Washington, USA
Distance from station: SE 26mi, 41km
Updated: Sat, 28-May-2022 5:56pm PDT

 Wind from calm
Wind: Calm
Temperature: 45°F , 7°C
Dew Point: 37°F , 3°C
Humidity: 76%
Barometer: 29.67 inHg , 1004.7 hPa
Visibility: 10 miles , 16 km
Cloud details: 3800 ft
2022/05/29 00:56 KSMP 290056Z AUTO 00000KT 10SM OVC038 07/03 A2967 RMK AO2 SLP053 T00670028
 
KPLU - Puyallup/Thun, Washington, USA
Distance from station: SW 36mi, 59km
Updated: Sat, 28-May-2022 6:15pm PDT
Light drizzle, Partly cloudy
Light drizzle, Partly cloudy
 Wind from calm
Wind: Calm
Temperature: 52°F , 11°C
Dew Point: 52°F , 11°C
Humidity: 100%
Barometer: 29.69 inHg , 1005.4 hPa
Visibility: 8 miles , 13 km
Cloud details: 700 ft
2022/05/29 01:15 KPLU 290115Z AUTO 00000KT 8SM -DZ SCT007 11/11 A2969 RMK AO2
KPAE - Everett, Washington, USA
Distance from station: NW 37mi, 60km
Updated: Sat, 28-May-2022 5:53pm PDT
Light rain, Overcast
Light rain, Overcast
 Wind from NW
Wind: NW 6 mph , 9 km/h
Temperature: 54°F , 12°C
Dew Point: 48°F , 9°C
Humidity: 82%
Barometer: 29.71 inHg , 1006.1 hPa
Visibility: 10 miles , 16 km
Cloud details: 5000 ft
6500 ft
2022/05/29 00:53 KPAE 290053Z 31005KT 10SM -RA SCT050 OVC065 12/09 A2971 RMK AO2 SLP061 P0000 T01170089
 
KTIW - Tacoma, Washington, USA
Distance from station: WSW 41mi, 66km
Updated: Sat, 28-May-2022 5:53pm PDT
Light rain, Mist, Mostly cloudy
Light rain, Mist, Mostly cloudy
 Wind from N
Wind: N 9 mph , 15 km/h
Temperature: 52°F , 11°C
Dew Point: 50°F , 10°C
Humidity: 94%
Barometer: 29.70 inHg , 1005.8 hPa
Summary: Light rain, Mist
Visibility: 3 miles , 5 km
Cloud details: 900 ft
1900 ft
2022/05/29 00:53 KTIW 290053Z 36008KT 3SM -RA BR SCT009 BKN019 11/10 A2970 RMK AO2 SLP059 P0005 T01110100
KTCM - Tacoma/Mc Chord, Washington, USA
Distance from station: SW 42mi, 67km
Updated: Sat, 28-May-2022 6:09pm PDT
Light rain, Overcast
Light rain, Overcast
 Wind from NNE
Wind: NNE 8 mph , 13 km/h
Temperature: 52°F , 11°C
Dew Point: 52°F , 11°C
Humidity: 100%
Barometer: 29.69 inHg , 1005.4 hPa
Visibility: 10 miles , 16 km
Cloud details: 800 ft
7000 ft
2022/05/29 01:09 KTCM 290109Z AUTO 03007KT 10SM -RA FEW008 OVC070 11/11 A2969 RMK AO2 RAE05RAB09 SLP058 $
 
KPWT - Bremerton Ntnl, Washington, USA
Distance from station: W 45mi, 73km
Updated: Sat, 28-May-2022 5:56pm PDT
Light rain, Clear
Light rain, Clear
 Wind from NNE
Wind: NNE 3 mph , 6 km/h
Temperature: 52°F , 11°C
Dew Point: 48°F , 9°C
Humidity: 88%
Barometer: 29.71 inHg , 1006.1 hPa
Visibility: 10 miles , 16 km
2022/05/29 00:56 KPWT 290056Z AUTO 03003KT 10SM -RA CLR 11/09 A2971 RMK AO2 SLP066 P0002 T01110094
KGRF - Fort Lewis/Gray, Washington, USA
Distance from station: SW 48mi, 77km
Updated: Sat, 28-May-2022 5:58pm PDT
Light rain, Overcast
Light rain, Overcast
 Wind from NNW
Wind: NNW 9 mph , 15 km/h
Temperature: 54°F , 12°C
Dew Point: 50°F , 10°C
Humidity: 88%
Barometer: 29.68 inHg , 1005.1 hPa
Visibility: 10 miles , 16 km
Cloud details: 800 ft
1400 ft
2100 ft
4800 ft
2022/05/29 00:58 KGRF 290058Z AUTO 33008KT 10SM -RA FEW008 SCT014 BKN021 OVC048 12/10 A2968 RMK AO2 RAE46RAB49 SLP055 P0003 T01160097 $
 
KAWO - Arlington Muni, Washington, USA
Distance from station: NNW 50mi, 80km
Updated: Sat, 28-May-2022 5:56pm PDT
Light rain, Overcast
Light rain, Overcast
 Wind from NW
Wind: NW 8 mph , 13 km/h
Temperature: 55°F , 13°C
Dew Point: 48°F , 9°C
Humidity: 77%
Barometer: 29.71 inHg , 1006.1 hPa
Visibility: 10 miles , 16 km
Cloud details: 5500 ft
2022/05/29 00:56 KAWO 290056Z AUTO 31007KT 10SM -RA OVC055 13/09 A2971 RMK AO2 SLP064 P0000 T01280094